Time;durP1;ratioP1;P1;durP2;ratioP2;P2;SDS_P1;SDS_P2;PMS_P1;PMS_P2;Temp;Humidity;BMP_temperature;BMP_pressure;BME280_temperature;BME280_humidity;BME280_pressure;Samples;Min_cycle;Max_cycle;Signal;HPM_P1;HPM_P2
2021/12/08 00:01:52;;;;;;;6.10;2.92;;;;;;;4.55;100.00;99132.19;6218578;23;20391;-62
2021/12/08 00:04:18;;;;;;;10.00;2.88;;;;;;;4.65;100.00;99114.78;6218121;23;20004;-61
2021/12/08 00:06:43;;;;;;;5.82;2.95;;;;;;;4.66;100.00;99118.22;6218579;23;20014;-62
2021/12/08 00:10:15;;;;;;;9.60;2.90;;;;;;;4.67;100.00;99123.38;6218220;23;20286;-62
2021/12/08 00:14:47;;;;;;;5.78;3.10;;;;;;;4.77;100.00;99108.50;6218005;23;20151;-61
2021/12/08 00:17:12;;;;;;;7.68;3.20;;;;;;;4.81;100.00;99100.66;6218333;23;20032;-61
2021/12/08 00:19:38;;;;;;;7.13;2.72;;;;;;;4.85;100.00;99106.63;6218214;23;20004;-62
2021/12/08 00:22:03;;;;;;;7.18;2.85;;;;;;;4.81;100.00;99099.81;6218398;23;20355;-62
2021/12/08 00:24:29;;;;;;;5.35;2.88;;;;;;;4.95;100.00;99118.56;6218642;23;20004;-61
2021/12/08 00:26:56;;;;;;;4.68;2.78;;;;;;;4.94;100.00;99110.81;6218352;23;20011;-61
2021/12/08 00:29:22;;;;;;;4.20;2.88;;;;;;;5.02;100.00;99124.50;6218203;23;20004;-61
2021/12/08 00:31:47;;;;;;;4.70;2.40;;;;;;;5.07;100.00;99130.41;6218207;23;20287;-61
2021/12/08 00:34:13;;;;;;;7.50;3.00;;;;;;;5.08;100.00;99114.84;6217755;23;20011;-61
2021/12/08 00:36:43;;;;;;;5.47;2.70;;;;;;;5.05;100.00;99112.28;6218714;23;20008;-61
2021/12/08 00:39:09;;;;;;;4.95;2.60;;;;;;;5.06;100.00;99120.94;6218344;23;20306;-62
2021/12/08 00:41:34;;;;;;;6.65;3.10;;;;;;;5.02;100.00;99114.13;6218180;23;20059;-61
2021/12/08 00:43:59;;;;;;;5.25;2.15;;;;;;;5.13;100.00;99115.63;6218362;23;20016;-62
2021/12/08 00:46:25;;;;;;;5.53;2.60;;;;;;;5.08;100.00;99109.66;6218317;23;20000;-62
2021/12/08 00:48:51;;;;;;;6.53;2.60;;;;;;;5.08;100.00;99114.84;6217876;23;20005;-61
2021/12/08 00:51:18;;;;;;;7.95;2.40;;;;;;;5.16;100.00;99102.59;6217727;23;20417;-61
2021/12/08 00:53:44;;;;;;;4.97;2.45;;;;;;;5.24;100.00;99111.06;6218545;23;20027;-61
2021/12/08 00:56:09;;;;;;;5.28;2.38;;;;;;;5.20;100.00;99119.78;6218389;23;20013;-61
2021/12/08 00:58:35;;;;;;;6.72;2.42;;;;;;;5.17;100.00;99116.41;6217690;23;20008;-61
2021/12/08 01:01:00;;;;;;;3.42;2.33;;;;;;;5.17;100.00;99139.75;6217704;23;20004;-61
2021/12/08 01:03:25;;;;;;;4.20;1.98;;;;;;;5.19;100.00;99140.59;6217749;23;20043;-62
2021/12/08 01:05:54;;;;;;;3.42;1.88;;;;;;;5.32;100.00;99142.03;6217864;23;20062;-62
2021/12/08 01:08:22;;;;;;;4.75;1.98;;;;;;;5.31;100.00;99147.25;6218326;23;20073;-62
2021/12/08 01:10:50;;;;;;;2.72;1.77;;;;;;;5.48;100.00;99152.97;6217862;23;20011;-62
2021/12/08 01:13:16;;;;;;;2.45;1.73;;;;;;;5.38;100.00;99141.91;6217837;23;20361;-62
2021/12/08 01:15:46;;;;;;;3.90;1.77;;;;;;;5.41;100.00;99156.56;6217703;23;20008;-63
2021/12/08 01:18:12;;;;;;;3.97;1.98;;;;;;;5.41;100.00;99146.19;6217815;23;20017;-62
2021/12/08 01:20:37;;;;;;;6.72;2.10;;;;;;;5.43;100.00;99159.97;6217818;23;20008;-62
2021/12/08 01:23:03;;;;;;;4.47;2.13;;;;;;;5.44;100.00;99146.13;6218402;23;20083;-62
2021/12/08 01:25:28;;;;;;;5.07;1.80;;;;;;;5.47;100.00;99157.31;6218035;23;20004;-62
2021/12/08 01:27:54;;;;;;;5.15;2.05;;;;;;;5.48;100.00;99160.75;6217683;23;20181;-61
2021/12/08 01:30:19;;;;;;;3.20;1.88;;;;;;;5.52;100.00;99162.41;6217140;23;20005;-63
2021/12/08 01:32:44;;;;;;;5.70;2.20;;;;;;;5.57;100.00;99155.38;6218177;23;20008;-62
2021/12/08 01:35:11;;;;;;;4.15;1.92;;;;;;;5.49;100.00;99165.91;6217738;23;20039;-62
2021/12/08 01:37:38;;;;;;;6.07;2.40;;;;;;;5.46;100.00;99167.72;6217935;23;20016;-61
2021/12/08 01:40:05;;;;;;;8.10;2.40;;;;;;;5.47;100.00;99167.69;6218199;23;20047;-63
2021/12/08 01:42:36;;;;;;;5.18;2.33;;;;;;;5.47;100.00;99161.63;6217514;23;20016;-62
2021/12/08 01:47:47;;;;;;;5.13;2.25;;;;;;;5.51;100.00;99178.84;6217580;23;20310;-62
2021/12/08 01:50:12;;;;;;;3.90;2.10;;;;;;;5.51;100.00;99179.72;6217533;23;20008;-62
2021/12/08 01:52:38;;;;;;;5.53;2.17;;;;;;;5.56;100.00;99174.41;6217625;23;20011;-62
2021/12/08 01:55:06;;;;;;;5.43;2.50;;;;;;;5.56;100.00;99179.59;6217681;23;20000;-62
2021/12/08 01:57:32;;;;;;;8.45;2.35;;;;;;;5.67;100.00;99179.41;6217007;23;20028;-62
2021/12/08 01:59:57;;;;;;;3.55;2.10;;;;;;;5.63;100.00;99176.00;6217208;23;20001;-61
2021/12/08 02:02:22;;;;;;;5.72;1.95;;;;;;;5.59;100.00;99183.00;6216400;23;20016;-62
2021/12/08 02:04:49;;;;;;;2.97;1.75;;;;;;;5.60;100.00;99187.31;6217572;23;20354;-62
2021/12/08 02:07:14;;;;;;;8.45;2.10;;;;;;;5.64;100.00;99189.84;6217165;23;20438;-62
2021/12/08 02:09:40;;;;;;;6.82;2.33;;;;;;;5.65;100.00;99197.59;6217497;23;20012;-62
2021/12/08 02:12:06;;;;;;;6.13;2.35;;;;;;;5.57;100.00;99196.88;6217445;23;20001;-62
2021/12/08 02:14:32;;;;;;;9.70;2.55;;;;;;;5.60;100.00;99202.00;6217459;23;20066;-62
2021/12/08 02:16:57;;;;;;;8.48;2.10;;;;;;;5.64;100.00;99197.63;6217446;23;20012;-61
2021/12/08 02:19:23;;;;;;;5.68;2.20;;;;;;;5.64;100.00;99206.25;6217478;23;20008;-62
2021/12/08 02:21:52;;;;;;;6.30;2.30;;;;;;;5.67;100.00;99213.13;6217747;23;20001;-62
2021/12/08 02:24:19;;;;;;;8.10;2.28;;;;;;;5.65;100.00;99218.34;6217440;23;20009;-62
2021/12/08 02:26:46;;;;;;;6.75;2.22;;;;;;;5.69;100.00;99229.53;6217344;23;20011;-62
2021/12/08 02:29:20;;;;;;;8.60;2.15;;;;;;;5.73;100.00;99231.16;6217291;23;20008;-61
2021/12/08 02:46:40;;;;;;;9.40;2.15;;;;;;;5.74;100.00;99231.13;6217749;23;20008;-62
2021/12/08 02:48:14;;;;;;;5.10;2.00;;;;;;;5.51;100.00;99217.78;6217111;23;20186;-62
2021/12/08 02:50:42;;;;;;;6.18;2.13;;;;;;;5.47;100.00;99227.34;6217408;23;20087;-61
2021/12/08 02:53:10;;;;;;;8.40;2.08;;;;;;;5.43;100.00;99235.22;6216966;23;20287;-61
2021/12/08 02:55:36;;;;;;;7.15;2.30;;;;;;;5.40;100.00;99245.63;6217055;23;20419;-61
2021/12/08 02:58:04;;;;;;;5.78;2.15;;;;;;;5.40;100.00;99250.81;6218157;23;20098;-62
2021/12/08 03:00:33;;;;;;;7.95;2.33;;;;;;;5.43;100.00;99245.59;6219033;23;20066;-62
2021/12/08 03:03:02;;;;;;;7.53;2.28;;;;;;;5.44;100.00;99239.50;6218526;23;20410;-61
2021/12/08 03:05:29;;;;;;;5.80;2.13;;;;;;;5.43;100.00;99236.06;6219188;23;20009;-62
2021/12/08 03:07:54;;;;;;;11.68;3.97;;;;;;;5.49;100.00;99228.19;6219008;23;20090;-62
2021/12/08 03:10:23;;;;;;;11.73;2.38;;;;;;;5.45;100.00;99216.13;6219662;23;20004;-61
2021/12/08 03:12:49;;;;;;;9.63;2.05;;;;;;;5.57;100.00;99228.00;6218463;23;20349;-62
2021/12/08 03:15:15;;;;;;;11.13;2.63;;;;;;;5.62;100.00;99233.97;6218926;23;20055;-62
2021/12/08 03:17:41;;;;;;;7.78;2.40;;;;;;;5.64;100.00;99249.53;6219239;23;20005;-62
2021/12/08 03:20:10;;;;;;;8.68;2.05;;;;;;;5.58;100.00;99238.38;6218579;23;20071;-62
2021/12/08 03:22:40;;;;;;;9.43;2.60;;;;;;;5.62;100.00;99251.28;6219018;23;20004;-62
2021/12/08 03:25:09;;;;;;;10.52;2.00;;;;;;;5.63;100.00;99245.22;6218860;23;20066;-62
2021/12/08 03:27:39;;;;;;;6.70;2.22;;;;;;;5.60;100.00;99251.31;6218753;23;20351;-62
2021/12/08 03:33:06;;;;;;;7.85;2.08;;;;;;;5.59;100.00;99273.81;6187670;23;20508;-62
2021/12/08 03:35:31;;;;;;;10.57;2.05;;;;;;;5.52;100.00;99266.19;6211554;23;20020;-62
2021/12/08 03:37:58;;;;;;;13.65;2.35;;;;;;;5.48;100.00;99274.91;6218902;23;20008;-61
2021/12/08 03:40:26;;;;;;;7.47;2.05;;;;;;;5.54;99.67;99273.03;6218854;23;20004;-62
2021/12/08 03:42:57;;;;;;;7.00;1.90;;;;;;;5.58;99.42;99268.66;6218929;23;20008;-62
2021/12/08 03:45:34;;;;;;;9.75;1.80;;;;;;;5.60;99.14;99262.53;6218812;23;20032;-62
2021/12/08 03:48:04;;;;;;;7.15;1.90;;;;;;;5.40;99.47;99256.88;6218655;23;20008;-63
2021/12/08 03:50:34;;;;;;;10.20;1.77;;;;;;;5.35;98.97;99263.91;6218434;23;20016;-62
2021/12/08 03:53:00;;;;;;;9.57;2.05;;;;;;;5.30;98.50;99270.88;6218574;23;20016;-62
2021/12/08 03:55:26;;;;;;;8.73;1.98;;;;;;;5.18;99.17;99268.50;6218712;23;20005;-62
2021/12/08 03:57:51;;;;;;;9.85;2.10;;;;;;;5.14;99.23;99283.25;6217796;23;20295;-61
2021/12/08 04:00:25;;;;;;;6.65;2.00;;;;;;;5.13;99.36;99288.47;6218552;23;20301;-61
2021/12/08 04:02:51;;;;;;;10.80;2.25;;;;;;;5.03;99.71;99279.97;6218418;23;20036;-62
2021/12/08 04:05:19;;;;;;;6.05;1.95;;;;;;;4.97;99.62;99276.63;6218393;23;20291;-61
2021/12/08 04:07:47;;;;;;;5.85;1.88;;;;;;;4.95;99.38;99293.94;6218454;23;20009;-62
2021/12/08 04:10:18;;;;;;;10.13;2.33;;;;;;;4.88;99.31;99295.75;6217920;23;20071;-62
2021/12/08 04:12:47;;;;;;;7.35;1.77;;;;;;;4.86;99.85;99294.94;6218569;23;20070;-62
2021/12/08 04:15:15;;;;;;;7.88;1.90;;;;;;;4.80;100.00;99292.44;6217094;23;20306;-62
2021/12/08 04:17:44;;;;;;;8.80;2.10;;;;;;;4.77;100.00;99293.34;6218310;23;20111;-62
2021/12/08 04:20:20;;;;;;;8.90;1.90;;;;;;;4.84;99.72;99287.22;6217949;23;20028;-62
2021/12/08 04:22:49;;;;;;;5.95;1.88;;;;;;;4.76;100.00;99304.59;6218294;23;20062;-62
2021/12/08 04:25:20;;;;;;;7.53;2.00;;;;;;;4.82;100.00;99301.06;6218769;23;20078;-61
2021/12/08 04:27:47;;;;;;;6.88;2.13;;;;;;;4.76;100.00;99301.16;6218293;23;20058;-62
2021/12/08 04:30:25;;;;;;;13.15;2.47;;;;;;;4.69;100.00;99294.31;6218128;23;20394;-62
2021/12/08 04:32:51;;;;;;;11.15;2.60;;;;;;;4.74;100.00;99311.53;6217831;23;20426;-62
2021/12/08 04:35:19;;;;;;;7.72;2.22;;;;;;;4.67;100.00;99316.84;6218281;23;20004;-62
2021/12/08 04:37:55;;;;;;;6.63;1.90;;;;;;;4.71;100.00;99303.78;6217946;23;20021;-63
2021/12/08 04:40:33;;;;;;;13.23;2.35;;;;;;;4.71;99.48;99313.31;6217873;23;20099;-61
2021/12/08 04:45:47;;;;;;;7.75;1.90;;;;;;;4.75;98.15;99307.19;6227851;23;20357;-62
2021/12/08 05:01:28;;;;;;;7.82;2.10;;;;;;;4.53;97.59;99322.19;6217326;23;20015;-62
2021/12/08 05:04:25;;;;;;;8.82;1.77;;;;;;;4.60;97.42;99320.38;6217955;23;20083;-61
2021/12/08 05:07:15;;;;;;;5.85;1.98;;;;;;;4.55;96.94;99321.28;6218073;23;20009;-62
2021/12/08 05:09:43;;;;;;;7.35;1.80;;;;;;;4.62;96.42;99329.00;6217751;23;20009;-61
2021/12/08 05:12:17;;;;;;;7.32;1.95;;;;;;;4.72;96.03;99328.81;6218363;23;20009;-62
2021/12/08 05:14:48;;;;;;;9.70;1.98;;;;;;;4.78;95.71;99340.84;6218147;23;20004;-62
2021/12/08 05:17:17;;;;;;;10.85;2.20;;;;;;;4.80;95.94;99339.09;6217402;23;20024;-62
2021/12/08 05:19:47;;;;;;;8.68;1.80;;;;;;;4.83;94.88;99328.69;6217799;23;20015;-62
2021/12/08 05:22:22;;;;;;;6.70;1.60;;;;;;;4.82;95.95;99329.56;6217688;23;20008;-62
2021/12/08 05:24:52;;;;;;;7.22;1.77;;;;;;;4.85;95.68;99329.50;6217823;23;20309;-62
2021/12/08 05:27:21;;;;;;;7.70;2.30;;;;;;;4.80;96.07;99339.09;6217887;23;20004;-63
2021/12/08 05:30:13;;;;;;;9.25;1.63;;;;;;;4.83;95.93;99328.69;6217592;23;20039;-66
2021/12/08 05:32:38;;;;;;;10.07;1.80;;;;;;;4.80;95.50;99336.50;6217274;23;20290;-66
2021/12/08 05:35:07;;;;;;;5.57;1.60;;;;;;;4.78;95.18;99330.47;6217219;23;20015;-66
2021/12/08 05:37:33;;;;;;;7.15;1.60;;;;;;;4.83;95.04;99342.50;6217590;23;20031;-66
2021/12/08 05:39:58;;;;;;;6.57;1.95;;;;;;;4.88;94.50;99345.88;6217733;23;20013;-66
2021/12/08 05:42:32;;;;;;;8.93;1.95;;;;;;;4.84;94.58;99348.56;6217644;23;20501;-66
2021/12/08 05:45:00;;;;;;;10.63;2.30;;;;;;;4.89;94.26;99357.94;6217437;23;20008;-66
2021/12/08 05:47:27;;;;;;;10.00;1.95;;;;;;;4.83;95.17;99362.38;6217665;23;20302;-65
2021/12/08 05:49:54;;;;;;;9.75;2.10;;;;;;;4.85;94.86;99360.59;6217279;23;20008;-66
2021/12/08 05:52:20;;;;;;;11.73;2.50;;;;;;;4.87;94.16;99358.84;6217565;23;20011;-65
2021/12/08 05:54:47;;;;;;;12.25;2.30;;;;;;;4.77;95.23;99349.50;6217080;23;20365;-66
2021/12/08 05:57:20;;;;;;;8.20;1.98;;;;;;;4.87;94.83;99359.69;6217577;23;20005;-65
2021/12/08 05:59:48;;;;;;;7.93;1.70;;;;;;;4.89;94.04;99352.75;6217432;23;20051;-66
2021/12/08 06:02:24;;;;;;;11.88;2.42;;;;;;;4.87;93.91;99357.09;6217631;23;20008;-66
2021/12/08 06:04:51;;;;;;;9.75;2.17;;;;;;;4.84;93.65;99369.28;6216988;23;20406;-65
2021/12/08 06:07:21;;;;;;;11.10;2.13;;;;;;;4.82;93.92;99368.44;6217726;23;20004;-66
2021/12/08 06:09:51;;;;;;;9.27;2.05;;;;;;;4.81;93.71;99382.28;6217611;23;20080;-66
2021/12/08 06:12:17;;;;;;;11.00;2.22;;;;;;;4.75;94.43;99384.94;6216911;23;20012;-66
2021/12/08 06:14:43;;;;;;;11.70;2.65;;;;;;;4.73;94.85;99376.31;6217444;23;20070;-64
2021/12/08 06:17:13;;;;;;;14.50;2.97;;;;;;;4.76;93.93;99378.88;6217713;23;20108;-62
2021/12/08 06:19:40;;;;;;;14.27;2.92;;;;;;;4.83;93.09;99377.94;6217814;23;20019;-67
2021/12/08 06:22:07;;;;;;;14.20;2.80;;;;;;;4.70;94.05;99386.72;6217445;23;20009;-67
2021/12/08 06:24:34;;;;;;;13.80;2.83;;;;;;;4.67;93.93;99392.81;6217418;23;20032;-66
2021/12/08 06:26:59;;;;;;;13.13;2.55;;;;;;;4.74;93.12;99389.25;6216622;23;20421;-62
2021/12/08 06:29:25;;;;;;;9.82;2.30;;;;;;;4.73;93.11;99394.47;6217477;23;20020;-62
2021/12/08 06:31:52;;;;;;;11.38;2.13;;;;;;;4.79;92.11;99397.84;6217412;23;20008;-62
2021/12/08 06:34:18;;;;;;;9.65;2.50;;;;;;;4.73;92.55;99394.47;6219009;23;20031;-62
2021/12/08 06:36:55;;;;;;;16.17;2.53;;;;;;;4.75;92.58;99395.31;6219323;23;20008;-63
2021/12/08 06:39:25;;;;;;;10.43;2.10;;;;;;;4.67;92.96;99395.41;6219359;23;20008;-62
2021/12/08 06:41:56;;;;;;;13.25;2.60;;;;;;;4.62;92.69;99404.13;6218744;23;20064;-61
2021/12/08 06:44:28;;;;;;;11.38;2.33;;;;;;;4.53;93.42;99392.13;6218945;23;20015;-61
2021/12/08 06:46:55;;;;;;;8.98;2.30;;;;;;;4.46;93.39;99383.59;6219098;23;20008;-61
2021/12/08 06:49:21;;;;;;;12.93;2.30;;;;;;;4.53;92.62;99394.72;6218386;23;20071;-61
2021/12/08 06:51:54;;;;;;;10.40;2.42;;;;;;;4.46;92.73;99388.78;6218588;23;20292;-62
2021/12/08 06:54:30;;;;;;;11.02;2.15;;;;;;;4.50;93.17;99407.72;6219266;23;20012;-62
2021/12/08 06:57:04;;;;;;;11.68;2.30;;;;;;;4.39;92.99;99415.59;6219121;23;20309;-61
2021/12/08 06:59:36;;;;;;;10.07;2.47;;;;;;;4.26;94.11;99411.44;6218612;23;20424;-61
2021/12/08 07:02:12;;;;;;;8.57;2.25;;;;;;;4.25;93.93;99414.91;6219194;23;20383;-62
2021/12/08 07:04:55;;;;;;;14.50;2.08;;;;;;;4.33;93.93;99412.25;6218977;23;20338;-61
2021/12/08 07:07:27;;;;;;;10.60;2.30;;;;;;;4.28;93.27;99417.47;6218810;23;20015;-62
2021/12/08 07:10:10;;;;;;;13.43;2.40;;;;;;;4.39;93.54;99423.38;6218340;23;20004;-61
2021/12/08 07:12:43;;;;;;;11.38;2.75;;;;;;;4.13;94.46;99436.63;6218866;23;20004;-61
2021/12/08 07:15:20;;;;;;;11.30;2.72;;;;;;;4.12;94.44;99444.38;6219124;23;20013;-61
2021/12/08 07:17:57;;;;;;;12.10;2.03;;;;;;;4.19;93.59;99428.75;6218238;23;20358;-61
2021/12/08 07:20:49;;;;;;;16.77;2.33;;;;;;;4.19;93.17;99446.03;6218619;23;20012;-61
2021/12/08 07:23:43;;;;;;;8.90;2.63;;;;;;;4.14;93.98;99460.78;6218343;23;20016;-62
2021/12/08 07:26:14;;;;;;;12.30;2.25;;;;;;;4.00;94.25;99467.78;6185604;23;20424;-61
2021/12/08 07:28:40;;;;;;;7.85;1.90;;;;;;;3.98;93.97;99464.38;6218115;23;20016;-61
2021/12/08 07:31:28;;;;;;;10.50;2.38;;;;;;;3.93;94.20;99471.31;6218375;23;20012;-61
2021/12/08 07:33:54;;;;;;;9.85;2.45;;;;;;;3.79;94.33;99456.78;6218880;23;20022;-61
2021/12/08 07:36:22;;;;;;;9.23;2.00;;;;;;;3.91;94.50;99476.50;6218452;23;20032;-61
2021/12/08 07:38:53;;;;;;;10.65;2.50;;;;;;;3.94;93.88;99480.78;6218493;23;20012;-61
2021/12/08 07:41:26;;;;;;;10.10;2.35;;;;;;;3.96;93.81;99485.09;6218112;23;20416;-62
2021/12/08 07:43:56;;;;;;;11.70;2.80;;;;;;;4.02;93.50;99487.59;6218149;23;20062;-63
2021/12/08 07:46:27;;;;;;;13.55;2.58;;;;;;;4.17;92.37;99486.59;6218234;23;20005;-61
2021/12/08 07:49:00;;;;;;;11.95;2.55;;;;;;;4.09;93.87;99496.19;6218683;23;20017;-60
2021/12/08 07:51:33;;;;;;;10.48;2.50;;;;;;;4.08;93.43;99497.06;6218430;23;20278;-61
2021/12/08 07:53:59;;;;;;;6.95;2.15;;;;;;;4.04;93.85;99492.78;6218364;23;20008;-62
2021/12/08 07:56:28;;;;;;;12.75;2.20;;;;;;;4.11;93.61;99497.91;6218373;23;20033;-61
2021/12/08 07:59:02;;;;;;;7.63;2.10;;;;;;;4.20;93.46;99502.97;6218561;23;20032;-61
2021/12/08 08:01:34;;;;;;;12.20;2.65;;;;;;;4.16;93.29;99498.69;6218735;23;20044;-61
2021/12/08 08:04:00;;;;;;;;;;;;;;;4.49;91.85;99496.66;6218464;23;20004;-61
2021/12/08 08:06:30;;;;;;;10.85;2.00;;;;;;;4.31;91.48;99504.63;6218266;23;19908;-62
2021/12/08 08:08:56;;;;;;;9.55;2.28;;;;;;;4.31;92.41;99509.78;6218166;23;20131;-62
2021/12/08 08:11:30;;;;;;;8.02;1.70;;;;;;;4.30;93.15;99505.50;6218215;23;20013;-63
2021/12/08 08:13:56;;;;;;;9.00;1.90;;;;;;;4.38;91.55;99501.94;6218203;23;20305;-62
2021/12/08 08:16:26;;;;;;;5.78;1.90;;;;;;;4.41;91.26;99517.44;6217346;23;20353;-63
2021/12/08 08:19:00;;;;;;;11.77;2.25;;;;;;;4.44;91.22;99512.25;6217737;23;20394;-63
2021/12/08 08:21:32;;;;;;;9.13;2.10;;;;;;;4.48;90.41;99511.34;6218471;23;20035;-63
2021/12/08 08:24:00;;;;;;;10.30;1.70;;;;;;;4.54;90.02;99508.66;6218382;23;20294;-63
2021/12/08 08:26:26;;;;;;;8.77;2.70;;;;;;;4.54;89.90;99508.66;6218325;23;20306;-64
2021/12/08 08:28:52;;;;;;;10.63;2.20;;;;;;;4.61;89.46;99514.66;6217822;23;20008;-63
2021/12/08 08:31:28;;;;;;;7.65;2.03;;;;;;;4.64;89.08;99508.59;6217751;23;20016;-63
2021/12/08 08:33:54;;;;;;;6.03;1.90;;;;;;;4.64;88.08;99487.88;6217869;23;20012;-63
2021/12/08 08:36:26;;;;;;;7.57;1.92;;;;;;;4.72;89.33;99504.16;6218282;23;20007;-63
2021/12/08 08:38:59;;;;;;;9.82;1.80;;;;;;;4.77;88.72;99492.03;6218294;23;20012;-63
2021/12/08 08:41:35;;;;;;;7.90;2.33;;;;;;;4.75;88.68;99493.78;6217915;23;20390;-63
2021/12/08 08:44:05;;;;;;;9.10;2.35;;;;;;;4.79;87.58;99477.31;6217895;23;20084;-64
2021/12/08 08:46:36;;;;;;;9.52;2.17;;;;;;;4.62;88.20;99479.25;6218661;23;20013;-63
2021/12/08 08:49:11;;;;;;;6.30;1.75;;;;;;;4.77;87.13;99477.34;6217841;23;20001;-63
2021/12/08 08:51:46;;;;;;;8.23;1.90;;;;;;;4.64;88.05;99469.72;6218568;23;20083;-63
2021/12/08 08:54:20;;;;;;;13.35;2.42;;;;;;;4.53;88.91;99468.09;6218053;23;20009;-63
2021/12/08 08:56:55;;;;;;;8.48;2.10;;;;;;;4.52;88.90;99461.19;6217438;23;20013;-63
2021/12/08 08:59:26;;;;;;;8.80;2.25;;;;;;;4.51;89.50;99480.22;6217915;23;20043;-63
2021/12/08 09:01:55;;;;;;;9.02;2.10;;;;;;;4.59;87.74;99487.06;6217856;23;20004;-63
2021/12/08 09:04:30;;;;;;;5.53;1.55;;;;;;;4.68;88.09;99492.13;6217404;23;20000;-63
2021/12/08 09:07:02;;;;;;;7.15;1.98;;;;;;;4.53;88.53;99498.31;6217638;23;20022;-64
2021/12/08 09:09:33;;;;;;;10.18;2.22;;;;;;;4.64;88.76;99496.50;6217401;23;20140;-63
2021/12/08 09:12:10;;;;;;;5.70;1.80;;;;;;;4.79;87.74;99503.22;6217837;23;20011;-63
2021/12/08 09:14:44;;;;;;;6.65;1.75;;;;;;;4.73;87.50;99498.09;6217683;23;20084;-63
2021/12/08 09:17:18;;;;;;;9.55;2.30;;;;;;;4.80;86.46;99489.41;6217213;23;20039;-64
2021/12/08 09:19:50;;;;;;;9.20;2.33;;;;;;;4.78;86.99;99496.34;6217418;23;20009;-64
2021/12/08 09:22:16;;;;;;;7.57;1.90;;;;;;;4.70;87.28;99504.19;6217422;23;20004;-63
2021/12/08 09:24:51;;;;;;;7.28;1.83;;;;;;;4.67;88.99;99503.38;6217652;23;20113;-63
2021/12/08 09:27:22;;;;;;;7.72;2.63;;;;;;;4.76;86.94;99516.22;6217512;23;20027;-63
2021/12/08 09:29:57;;;;;;;8.57;2.17;;;;;;;4.80;87.03;99517.91;6217618;23;20004;-63
2021/12/08 09:32:36;;;;;;;7.68;2.13;;;;;;;4.78;86.61;99522.25;6217373;23;20414;-64
2021/12/08 09:35:20;;;;;;;8.48;2.20;;;;;;;4.81;87.61;99525.66;6217713;23;20294;-63
2021/12/08 09:37:51;;;;;;;8.38;1.65;;;;;;;4.84;87.80;99541.19;6217662;23;20016;-63
2021/12/08 09:40:22;;;;;;;11.18;2.20;;;;;;;4.87;87.51;99540.28;6217799;23;20039;-64
2021/12/08 09:42:53;;;;;;;10.18;2.10;;;;;;;4.92;87.46;99537.63;6217638;23;20294;-63
2021/12/08 09:45:32;;;;;;;5.95;2.15;;;;;;;4.98;87.98;99533.25;6217634;23;20004;-64
2021/12/08 09:48:08;;;;;;;8.10;2.00;;;;;;;5.13;87.25;99524.41;6217851;23;20314;-63
2021/12/08 09:50:35;;;;;;;8.82;2.30;;;;;;;5.09;87.06;99518.41;6217409;23;20008;-69
2021/12/08 09:53:01;;;;;;;6.57;1.85;;;;;;;5.14;86.69;99514.03;6217349;23;20054;-68
2021/12/08 09:55:26;;;;;;;6.45;1.92;;;;;;;5.25;85.46;99501.78;6217350;23;20008;-67
2021/12/08 09:57:52;;;;;;;9.52;2.17;;;;;;;5.32;85.25;99518.13;6217519;23;20079;-65
2021/12/08 10:00:23;;;;;;;6.43;2.22;;;;;;;5.38;85.05;99515.41;6217632;23;20005;-64
2021/12/08 10:02:53;;;;;;;9.00;1.60;;;;;;;5.34;85.21;99503.41;6217412;23;20005;-64
2021/12/08 10:05:19;;;;;;;7.65;1.70;;;;;;;5.34;85.07;99495.63;6217325;23;20062;-65
2021/12/08 10:07:44;;;;;;;8.70;1.60;;;;;;;5.33;85.54;99493.03;6218046;23;20008;-64
2021/12/08 10:10:13;;;;;;;6.38;1.88;;;;;;;5.49;84.33;99502.31;6219661;23;20474;-64
2021/12/08 10:12:39;;;;;;;8.90;1.80;;;;;;;5.55;83.77;99489.25;6219524;23;20083;-64
2021/12/08 10:15:07;;;;;;;7.80;1.55;;;;;;;5.56;83.49;99491.81;6219550;23;20036;-64
2021/12/08 10:17:33;;;;;;;9.52;1.98;;;;;;;5.62;82.92;99490.88;6219045;23;20004;-63
2021/12/08 10:20:12;;;;;;;7.50;1.80;;;;;;;5.88;82.56;99481.00;6219130;23;20011;-64
2021/12/08 10:22:39;;;;;;;8.20;1.98;;;;;;;5.77;82.50;99480.25;6219427;23;20009;-64
2021/12/08 10:25:18;;;;;;;6.47;1.90;;;;;;;5.73;84.08;99473.38;6219400;23;20094;-64
2021/12/08 10:28:09;;;;;;;8.13;1.80;;;;;;;5.85;84.16;99480.13;6219376;23;20009;-63
2021/12/08 10:30:46;;;;;;;9.27;1.70;;;;;;;5.96;81.39;99478.25;6219152;23;20012;-64
2021/12/08 10:36:42;;;;;;;10.90;1.83;;;;;;;5.79;83.01;99444.75;6217942;23;20114;-63
2021/12/08 10:39:13;;;;;;;8.32;1.60;;;;;;;5.93;83.02;99466.16;6220055;23;20024;-63
2021/12/08 10:41:55;;;;;;;10.70;2.35;;;;;;;5.99;83.28;99459.16;6218719;23;20016;-63
2021/12/08 10:44:27;;;;;;;8.02;1.95;;;;;;;6.01;83.81;99460.00;6218871;23;20413;-64
2021/12/08 10:46:58;;;;;;;10.50;1.88;;;;;;;6.20;81.28;99457.06;6218826;23;20009;-63
2021/12/08 10:54:44;;;;;;;10.30;1.50;;;;;;;6.06;81.00;99455.59;6218948;23;20314;-64
2021/12/08 10:57:44;;;;;;;3.80;1.60;;;;;;;6.16;81.52;99451.94;6218690;23;20091;-64
2021/12/08 11:00:11;;;;;;;10.48;2.60;;;;;;;6.05;81.60;99459.94;6170603;23;20047;-63
2021/12/08 11:03:00;;;;;;;6.97;1.92;;;;;;;6.13;81.93;99472.78;6218908;23;20064;-63
2021/12/08 11:05:26;;;;;;;7.22;1.98;;;;;;;6.15;80.87;99478.78;6218600;23;20004;-64
2021/12/08 11:08:15;;;;;;;7.28;1.73;;;;;;;6.18;81.64;99486.53;6218534;23;20008;-64
2021/12/08 11:10:58;;;;;;;5.82;1.80;;;;;;;6.29;81.37;99498.44;6218943;23;20301;-64
2021/12/08 11:13:28;;;;;;;8.50;1.70;;;;;;;6.36;81.31;99499.19;6219188;23;20016;-64
2021/12/08 11:16:03;;;;;;;6.70;1.52;;;;;;;6.39;81.01;99508.69;6218780;23;20020;-64
2021/12/08 11:18:31;;;;;;;7.22;1.80;;;;;;;6.67;79.79;99509.88;6218519;23;20011;-62
2021/12/08 11:21:00;;;;;;;4.70;1.40;;;;;;;6.80;78.49;99513.94;6218696;23;20004;-74
2021/12/08 11:23:42;;;;;;;3.58;1.42;;;;;;;6.90;79.19;99520.72;6219316;23;20016;-70
2021/12/08 11:26:20;;;;;;;7.68;1.88;;;;;;;6.86;79.40;99524.25;6218509;23;20405;-70
2021/12/08 11:29:11;;;;;;;5.88;1.50;;;;;;;6.84;78.77;99527.75;6218709;23;20309;-70
2021/12/08 11:31:38;;;;;;;5.30;1.80;;;;;;;6.81;79.36;99526.06;6218739;23;20031;-70
2021/12/08 11:34:06;;;;;;;6.15;1.60;;;;;;;6.84;78.91;99530.34;6218668;23;20079;-69
2021/12/08 11:36:41;;;;;;;5.03;1.45;;;;;;;6.78;80.31;99533.91;6218922;23;20000;-69
2021/12/08 11:39:16;;;;;;;5.18;1.60;;;;;;;6.76;80.65;99535.69;6219040;23;20015;-68
2021/12/08 11:41:46;;;;;;;7.85;1.80;;;;;;;6.83;77.83;99539.91;6218302;23;20039;-69
2021/12/08 11:44:19;;;;;;;5.20;1.48;;;;;;;6.70;79.26;99553.16;6218728;23;20084;-68
2021/12/08 11:46:51;;;;;;;5.68;1.83;;;;;;;6.74;79.06;99560.88;6218793;23;20015;-69
2021/12/08 11:49:17;;;;;;;5.53;1.55;;;;;;;6.69;79.05;99552.31;6218440;23;20000;-66
2021/12/08 11:51:52;;;;;;;7.97;1.90;;;;;;;6.64;79.32;99560.19;6217888;23;20103;-69
2021/12/08 11:54:34;;;;;;;7.60;2.00;;;;;;;6.64;80.44;99559.31;6218658;23;20005;-67
2021/12/08 11:57:10;;;;;;;7.22;1.80;;;;;;;6.63;79.91;99561.06;6218405;23;20084;-68
2021/12/08 12:00:02;;;;;;;6.38;1.73;;;;;;;6.58;80.26;99575.06;6217907;23;20020;-67
2021/12/08 12:02:31;;;;;;;6.68;1.65;;;;;;;6.56;80.75;99566.41;6218329;23;20013;-67
2021/12/08 12:04:58;;;;;;;4.88;1.80;;;;;;;6.59;78.99;99567.19;6218593;23;20005;-67
2021/12/08 12:07:24;;;;;;;6.20;1.52;;;;;;;6.49;79.82;99575.19;6218294;23;20035;-68
2021/12/08 12:09:51;;;;;;;5.15;2.00;;;;;;;6.49;79.84;99585.59;6217769;23;20008;-67
2021/12/08 12:12:18;;;;;;;5.60;1.98;;;;;;;6.50;80.31;99588.16;6218134;23;20001;-67
2021/12/08 12:14:43;;;;;;;7.25;1.83;;;;;;;6.56;79.84;99590.66;6217975;23;20008;-67
2021/12/08 12:17:10;;;;;;;6.03;1.77;;;;;;;6.62;79.83;99595.72;6217916;23;20310;-67
2021/12/08 12:19:44;;;;;;;4.93;1.75;;;;;;;6.59;80.52;99602.72;6217978;23;20090;-67
2021/12/08 12:22:09;;;;;;;4.75;1.65;;;;;;;6.64;79.40;99619.09;6217983;23;20008;-67
2021/12/08 12:24:40;;;;;;;4.87;1.67;;;;;;;6.61;79.13;99619.16;6217473;23;20012;-67
2021/12/08 12:27:20;;;;;;;5.67;1.77;;;;;;;6.55;79.86;99620.13;6217836;23;20420;-67
2021/12/08 12:30:04;;;;;;;6.60;1.73;;;;;;;6.56;79.87;99615.78;6217547;23;20060;-68
2021/12/08 12:32:41;;;;;;;7.47;2.00;;;;;;;6.48;80.04;99623.72;6217868;23;20001;-68
2021/12/08 12:35:13;;;;;;;6.95;2.00;;;;;;;6.49;80.17;99622.81;6217996;23;20373;-64
2021/12/08 12:37:42;;;;;;;9.45;2.30;;;;;;;6.47;81.17;99634.13;6217850;23;20074;-64
2021/12/08 12:40:12;;;;;;;8.13;2.38;;;;;;;6.48;80.41;99635.84;6217719;23;20016;-64